createdAt,value
2023-02-09T00:00:02.082Z,1.1
2023-02-09T00:01:00.290Z,1.1
2023-02-09T00:02:00.317Z,1.1
2023-02-09T00:03:00.283Z,1.1
2023-02-09T00:04:00.438Z,1.1
2023-02-09T00:05:00.275Z,1.1
2023-02-09T00:06:00.279Z,1.1
2023-02-09T00:07:00.756Z,1.1
2023-02-09T00:08:00.280Z,1.1
2023-02-09T00:09:00.278Z,1.1
2023-02-09T00:10:00.295Z,1.1
2023-02-09T00:11:00.324Z,1.1
2023-02-09T00:12:00.266Z,1.1
2023-02-09T00:13:00.272Z,1.1
2023-02-09T00:14:00.270Z,1.1
2023-02-09T00:15:00.292Z,1.1
2023-02-09T00:16:00.345Z,1.1
2023-02-09T00:17:00.259Z,1.1
2023-02-09T00:18:00.262Z,1.1
2023-02-09T00:19:00.266Z,1.1
2023-02-09T00:20:00.288Z,1.1
2023-02-09T00:21:00.290Z,1.1
2023-02-09T00:22:00.268Z,1.1
2023-02-09T00:23:00.273Z,1.1
2023-02-09T00:24:00.299Z,1.1
2023-02-09T00:25:00.292Z,1.1
2023-02-09T00:26:00.294Z,1.1
2023-02-09T00:27:00.273Z,1.1
2023-02-09T00:28:00.293Z,1.1
2023-02-09T00:29:00.290Z,1.1
2023-02-09T00:30:00.307Z,1.1
2023-02-09T00:31:00.309Z,1.1
2023-02-09T00:32:00.380Z,1.1
2023-02-09T00:33:00.306Z,1.1
2023-02-09T00:34:00.289Z,1.1
2023-02-09T00:35:00.317Z,1.1
2023-02-09T00:36:00.298Z,1.1
2023-02-09T00:37:00.313Z,1.1
2023-02-09T00:38:00.294Z,1.1
2023-02-09T00:39:00.293Z,1.1
2023-02-09T00:40:00.328Z,1.1
2023-02-09T00:41:00.313Z,1.1
2023-02-09T00:42:00.303Z,1.1
2023-02-09T00:43:00.314Z,1.1
2023-02-09T00:44:00.289Z,1.1
2023-02-09T00:45:00.325Z,1.1
2023-02-09T00:46:00.384Z,1.1
2023-02-09T00:47:00.292Z,1.1
2023-02-09T00:48:00.296Z,1.1
2023-02-09T00:49:00.298Z,1.1
2023-02-09T00:50:00.317Z,1.1
2023-02-09T00:51:00.322Z,1.1
2023-02-09T00:52:00.308Z,1.1
2023-02-09T00:53:00.316Z,1.1
2023-02-09T00:54:00.294Z,1.1
2023-02-09T00:55:00.321Z,1.1
2023-02-09T00:56:00.321Z,1.1
2023-02-09T00:57:00.324Z,1.1
2023-02-09T00:58:00.312Z,1.1
2023-02-09T00:59:00.315Z,1.1
2023-02-09T01:00:00.321Z,1.1
2023-02-09T01:01:00.350Z,1.1
2023-02-09T01:02:00.307Z,1.1
2023-02-09T01:03:00.318Z,1.1
2023-02-09T01:04:00.312Z,1.1
2023-02-09T01:05:00.376Z,1.1
2023-02-09T01:06:00.325Z,1.1
2023-02-09T01:07:00.321Z,1.1
2023-02-09T01:08:00.310Z,1.1
2023-02-09T01:09:00.318Z,1.1
2023-02-09T01:10:00.328Z,1.1
2023-02-09T01:11:00.336Z,1.1
2023-02-09T01:12:00.357Z,1.1
2023-02-09T01:13:00.324Z,1.1
2023-02-09T01:14:00.316Z,1.1
2023-02-09T01:15:00.333Z,1.1
2023-02-09T01:16:00.332Z,1.1
2023-02-09T01:17:00.433Z,1.1
2023-02-09T01:18:00.359Z,1.1
2023-02-09T01:19:00.323Z,1.1
2023-02-09T01:20:00.365Z,1.1
2023-02-09T01:21:00.319Z,1.1
2023-02-09T01:22:00.336Z,1.1
2023-02-09T01:23:00.441Z,1.1
2023-02-09T01:24:00.324Z,1.1
2023-02-09T01:25:00.346Z,1.1
2023-02-09T01:26:00.340Z,1.1
2023-02-09T01:27:00.351Z,1.1
2023-02-09T01:28:00.453Z,1.1
2023-02-09T01:29:00.334Z,1.1
2023-02-09T01:30:00.352Z,1.1
2023-02-09T01:31:00.501Z,1.1
2023-02-09T01:32:00.578Z,1.1
2023-02-09T01:33:00.380Z,1.1
2023-02-09T01:34:00.348Z,1.1
2023-02-09T01:35:00.395Z,1.1
2023-02-09T01:36:00.369Z,1.1
2023-02-09T01:37:00.401Z,1.1
2023-02-09T01:38:00.465Z,1.1
2023-02-09T01:39:00.353Z,1.1
2023-02-09T01:40:00.438Z,1.1
2023-02-09T01:41:00.417Z,1.1
2023-02-09T01:42:00.464Z,1.1
2023-02-09T01:43:00.438Z,1.1
2023-02-09T01:44:00.588Z,1.1
2023-02-09T01:45:00.461Z,1.1
2023-02-09T01:46:00.469Z,1.1
2023-02-09T01:47:00.488Z,1.1
2023-02-09T01:48:00.485Z,1.1
2023-02-09T01:49:00.480Z,1.1
2023-02-09T01:50:00.536Z,1.1
2023-02-09T01:51:00.581Z,1.1
2023-02-09T01:52:00.488Z,1.1
2023-02-09T01:53:00.505Z,1.1
2023-02-09T01:54:00.606Z,1.1
2023-02-09T01:55:00.540Z,1.1
2023-02-09T01:56:00.539Z,1.1
2023-02-09T01:57:00.541Z,1.1
2023-02-09T01:58:00.520Z,1.1
2023-02-09T01:59:00.525Z,1.1
2023-02-09T02:00:00.408Z,1.1
2023-02-09T02:01:00.477Z,1.1
2023-02-09T02:02:00.375Z,1.1
2023-02-09T02:03:00.501Z,1.1
2023-02-09T02:04:00.368Z,1.1
2023-02-09T02:05:00.405Z,1.1
2023-02-09T02:06:00.396Z,1.1
2023-02-09T02:07:00.373Z,1.1
2023-02-09T02:08:00.393Z,1.1
2023-02-09T02:09:00.375Z,1.1
2023-02-09T02:10:00.389Z,1.1
2023-02-09T02:11:00.391Z,1.1
2023-02-09T02:12:00.408Z,1.1
2023-02-09T02:13:00.376Z,1.1
2023-02-09T02:14:00.379Z,1.1
2023-02-09T02:15:00.373Z,1.1
2023-02-09T02:16:00.465Z,1.1
2023-02-09T02:17:00.402Z,1.1
2023-02-09T02:18:00.380Z,1.1
2023-02-09T02:19:00.381Z,1.1
2023-02-09T02:20:00.385Z,1.1
2023-02-09T02:21:00.384Z,1.1
2023-02-09T02:22:00.404Z,1.1
2023-02-09T02:23:00.386Z,1.1
2023-02-09T02:24:00.387Z,1.1
2023-02-09T02:25:00.387Z,1.1
2023-02-09T02:26:00.412Z,1.1
2023-02-09T02:27:00.406Z,1.1
2023-02-09T02:28:00.419Z,1.1
2023-02-09T02:29:00.397Z,1.1
2023-02-09T02:30:00.390Z,1.1
2023-02-09T02:31:00.528Z,1.1
2023-02-09T02:32:00.408Z,1.1
2023-02-09T02:33:00.405Z,1.1
2023-02-09T02:34:00.408Z,1.1
2023-02-09T02:35:00.392Z,1.1
2023-02-09T02:36:00.387Z,1.1
2023-02-09T02:37:00.818Z,1.1
2023-02-09T02:38:00.394Z,1.1
2023-02-09T02:39:00.429Z,1.1
2023-02-09T02:40:00.414Z,1.1
2023-02-09T02:41:00.415Z,1.1
2023-02-09T02:42:00.416Z,1.1
2023-02-09T02:43:00.407Z,1.1
2023-02-09T02:44:00.406Z,1.1
2023-02-09T02:45:00.415Z,1.1
2023-02-09T02:46:00.449Z,1.1
2023-02-09T02:47:00.412Z,1.1
2023-02-09T02:48:00.426Z,1.1
2023-02-09T02:49:00.409Z,1.1
2023-02-09T02:50:00.420Z,1.1
2023-02-09T02:51:00.550Z,1.1
2023-02-09T02:52:00.419Z,1.1
2023-02-09T02:53:00.430Z,1.1
2023-02-09T02:54:00.417Z,1.1
2023-02-09T02:55:00.439Z,1.1
2023-02-09T02:56:00.446Z,1.1
2023-02-09T02:57:00.444Z,1.1
2023-02-09T02:58:00.416Z,1.1
2023-02-09T02:59:00.450Z,1.1
2023-02-09T03:00:00.461Z,1.1
2023-02-09T03:01:01.195Z,1.1
2023-02-09T03:02:01.186Z,1.1
2023-02-09T03:03:01.176Z,1.1
2023-02-09T03:04:01.206Z,1.1
2023-02-09T03:05:01.198Z,1.1
2023-02-09T03:06:01.210Z,1.1
2023-02-09T03:07:01.182Z,1.1
2023-02-09T03:08:01.177Z,1.1
2023-02-09T03:09:01.209Z,1.1
2023-02-09T03:10:03.083Z,1.1
2023-02-09T03:11:01.209Z,1.1
2023-02-09T03:12:01.216Z,1.1
2023-02-09T03:13:01.189Z,1.1
2023-02-09T03:14:01.196Z,1.1
2023-02-09T03:15:01.200Z,1.1
2023-02-09T03:16:01.277Z,1.1
2023-02-09T03:17:01.186Z,1.1
2023-02-09T03:18:01.186Z,1.1
2023-02-09T03:19:01.192Z,1.1
2023-02-09T03:20:01.227Z,1.1
2023-02-09T03:21:01.221Z,1.1
2023-02-09T03:22:01.195Z,1.1
2023-02-09T03:23:01.197Z,1.1
2023-02-09T03:24:01.225Z,1.1
2023-02-09T03:25:01.201Z,1.1
2023-02-09T03:26:01.216Z,1.1
2023-02-09T03:27:01.208Z,1.1
2023-02-09T03:28:01.241Z,1.1
2023-02-09T03:29:01.209Z,1.1
2023-02-09T03:30:01.212Z,1.1
2023-02-09T03:31:01.323Z,1.1
2023-02-09T03:32:01.314Z,1.1
2023-02-09T03:33:01.208Z,1.1
2023-02-09T03:34:01.231Z,1.1
2023-02-09T03:35:01.223Z,1.1
2023-02-09T03:36:01.249Z,1.1
2023-02-09T03:37:01.216Z,1.1
2023-02-09T03:38:01.229Z,1.1
2023-02-09T03:39:01.242Z,1.1
2023-02-09T03:40:01.219Z,1.1
2023-02-09T03:41:01.235Z,1.1
2023-02-09T03:42:01.218Z,1.1
2023-02-09T03:43:01.234Z,1.1
2023-02-09T03:44:01.219Z,1.1
2023-02-09T03:45:01.225Z,1.1
2023-02-09T03:46:01.245Z,1.1
2023-02-09T03:47:01.225Z,1.1
2023-02-09T03:48:01.263Z,1.1
2023-02-09T03:49:01.225Z,1.1
2023-02-09T03:50:01.230Z,1.1
2023-02-09T03:51:01.243Z,1.1
2023-02-09T03:52:01.240Z,1.1
2023-02-09T03:53:01.247Z,1.1
2023-02-09T03:54:01.246Z,1.1
2023-02-09T03:55:01.224Z,1.1
2023-02-09T03:56:01.246Z,1.1
2023-02-09T03:57:01.241Z,1.1
2023-02-09T03:58:01.277Z,1.1
2023-02-09T03:59:01.229Z,1.1
2023-02-09T04:00:01.253Z,1.1
2023-02-09T04:01:01.446Z,1.1
2023-02-09T04:02:01.234Z,1.1
2023-02-09T04:03:01.246Z,1.1
2023-02-09T04:04:01.230Z,1.1
2023-02-09T04:05:01.231Z,1.1
2023-02-09T04:06:01.253Z,1.1
2023-02-09T04:07:01.235Z,1.1
2023-02-09T04:08:01.267Z,1.1
2023-02-09T04:09:01.260Z,1.1
2023-02-09T04:10:01.244Z,1.1
2023-02-09T04:11:01.257Z,1.1
2023-02-09T04:12:01.248Z,1.1
2023-02-09T04:13:01.255Z,1.1
2023-02-09T04:14:01.242Z,1.1
2023-02-09T04:15:01.250Z,1.1
2023-02-09T04:16:01.361Z,1.1
2023-02-09T04:17:01.243Z,1.1
2023-02-09T04:18:01.263Z,1.1
2023-02-09T04:19:01.244Z,1.1
2023-02-09T04:20:01.257Z,1.1
2023-02-09T04:21:01.269Z,1.1
2023-02-09T04:22:01.277Z,1.1
2023-02-09T04:23:01.246Z,1.1
2023-02-09T04:24:01.270Z,1.1
2023-02-09T04:25:01.251Z,1.1
2023-02-09T04:26:01.271Z,1.1
2023-02-09T04:27:01.255Z,1.1
2023-02-09T04:28:01.335Z,1.1
2023-02-09T04:29:01.271Z,1.1
2023-02-09T04:30:01.254Z,1.1
2023-02-09T04:31:01.287Z,1.1
2023-02-09T04:32:01.338Z,1.1
2023-02-09T04:33:01.271Z,1.1
2023-02-09T04:34:01.283Z,1.1
2023-02-09T04:35:00.241Z,1.1
2023-02-09T04:36:00.228Z,1.1
2023-02-09T04:37:00.247Z,1.1
2023-02-09T04:38:00.235Z,1.1
2023-02-09T04:39:00.235Z,1.1
2023-02-09T04:40:00.250Z,1.1
2023-02-09T04:41:00.235Z,1.1
2023-02-09T04:42:00.273Z,1.1
2023-02-09T04:43:00.230Z,1.1
2023-02-09T04:44:00.250Z,1.1
2023-02-09T04:45:00.244Z,1.1
2023-02-09T04:46:00.345Z,1.1
2023-02-09T04:47:00.255Z,1.1
2023-02-09T04:48:00.232Z,1.1
2023-02-09T04:49:00.244Z,1.1
2023-02-09T04:50:00.236Z,1.1
2023-02-09T04:51:00.247Z,1.1
2023-02-09T04:52:00.263Z,1.1
2023-02-09T04:53:00.253Z,1.1
2023-02-09T04:54:00.252Z,1.1
2023-02-09T04:55:00.268Z,1.1
2023-02-09T04:56:00.242Z,1.1
2023-02-09T04:57:00.263Z,1.1
2023-02-09T04:58:00.266Z,1.1
2023-02-09T04:59:00.251Z,1.1
2023-02-09T05:00:00.255Z,1.1
2023-02-09T05:01:00.307Z,1.1
2023-02-09T05:02:00.252Z,1.1
2023-02-09T05:03:00.275Z,1.1
2023-02-09T05:04:00.255Z,1.1
2023-02-09T05:05:00.273Z,1.1
2023-02-09T05:06:00.273Z,1.1
2023-02-09T05:07:00.253Z,1.1
2023-02-09T05:08:00.279Z,1.1
2023-02-09T05:09:00.262Z,1.1
2023-02-09T05:10:00.287Z,1.1
2023-02-09T05:11:00.278Z,1.1
2023-02-09T05:12:00.267Z,1.1
2023-02-09T05:13:00.284Z,1.1
2023-02-09T05:14:00.293Z,1.1
2023-02-09T05:15:00.263Z,1.1
2023-02-09T05:16:00.295Z,1.1
2023-02-09T05:17:00.346Z,1.1
2023-02-09T05:18:00.305Z,1.1
2023-02-09T05:19:00.289Z,1.1
2023-02-09T05:20:00.297Z,1.1
2023-02-09T05:21:00.304Z,1.1
2023-02-09T05:22:00.425Z,1.1
2023-02-09T05:23:00.317Z,1.1
2023-02-09T05:24:00.323Z,1.1
2023-02-09T05:25:00.291Z,1.1
2023-02-09T05:26:00.304Z,1.1
2023-02-09T05:27:00.304Z,1.1
2023-02-09T05:28:00.379Z,1.1
2023-02-09T05:29:00.300Z,1.1
2023-02-09T05:30:00.332Z,1.1
2023-02-09T05:31:00.344Z,1.1
2023-02-09T05:32:00.399Z,1.1
2023-02-09T05:33:00.320Z,1.1
2023-02-09T05:34:00.289Z,1.1
2023-02-09T05:35:00.337Z,1.1
2023-02-09T05:36:00.332Z,1.1
2023-02-09T05:37:00.341Z,1.1
2023-02-09T05:38:00.344Z,1.1
2023-02-09T05:39:00.314Z,1.1
2023-02-09T05:40:00.316Z,1.1
2023-02-09T05:41:00.331Z,1.1
2023-02-09T05:42:00.324Z,1.1
2023-02-09T05:43:00.309Z,1.1
2023-02-09T05:44:00.307Z,1.1
2023-02-09T05:45:00.312Z,1.1
2023-02-09T05:46:00.413Z,1.1
2023-02-09T05:47:00.364Z,1.1
2023-02-09T05:48:00.334Z,1.1
2023-02-09T05:49:00.336Z,1.1
2023-02-09T05:50:00.324Z,1.1
2023-02-09T05:51:00.339Z,1.1
2023-02-09T05:52:00.313Z,1.1
2023-02-09T05:53:00.352Z,1.1
2023-02-09T05:54:00.315Z,1.1
2023-02-09T05:55:00.316Z,1.1
2023-02-09T05:56:00.334Z,1.1
2023-02-09T05:57:00.332Z,1.1
2023-02-09T05:58:00.320Z,1.1
2023-02-09T05:59:00.329Z,1.1
2023-02-09T06:00:00.337Z,1.1
2023-02-09T06:01:00.344Z,1.1
2023-02-09T06:02:00.413Z,1.1
2023-02-09T06:03:00.342Z,1.1
2023-02-09T06:04:00.314Z,1.1
2023-02-09T06:05:00.326Z,1.1
2023-02-09T06:06:00.345Z,1.1
2023-02-09T06:07:00.346Z,1.1
2023-02-09T06:08:00.363Z,1.1
2023-02-09T06:09:00.325Z,1.1
2023-02-09T06:10:00.393Z,1.1
2023-02-09T06:11:00.355Z,1.1
2023-02-09T06:12:00.352Z,1.1
2023-02-09T06:13:00.337Z,1.1
2023-02-09T06:14:00.336Z,1.3
2023-02-09T06:15:00.333Z,1.6
2023-02-09T06:16:01.381Z,1.9
2023-02-09T06:17:00.346Z,2.3
2023-02-09T06:18:00.348Z,2.8
2023-02-09T06:19:00.342Z,3.4
2023-02-09T06:20:00.345Z,4.2
2023-02-09T06:21:00.356Z,5.1
2023-02-09T06:22:00.340Z,6.2
2023-02-09T06:23:00.358Z,7.5
2023-02-09T06:24:00.341Z,9
2023-02-09T06:25:00.345Z,10.9
2023-02-09T06:26:00.364Z,12.9
2023-02-09T06:27:00.359Z,15.3
2023-02-09T06:28:00.421Z,18.1
2023-02-09T06:29:00.360Z,21.4
2023-02-09T06:30:00.415Z,25
2023-02-09T06:31:00.485Z,28.8
2023-02-09T06:32:00.468Z,33.6
2023-02-09T06:33:00.349Z,38.4
2023-02-09T06:34:00.366Z,43.8
2023-02-09T06:35:00.356Z,49.9
2023-02-09T06:36:00.375Z,56.9
2023-02-09T06:37:00.357Z,64.2
2023-02-09T06:38:00.377Z,71.5
2023-02-09T06:39:00.350Z,79.6
2023-02-09T06:40:00.356Z,87.6
2023-02-09T06:41:00.404Z,97.5
2023-02-09T06:42:00.869Z,106
2023-02-09T06:43:00.409Z,116.7
2023-02-09T06:44:00.364Z,128.4
2023-02-09T06:45:00.380Z,139.6
2023-02-09T06:46:00.429Z,151.8
2023-02-09T06:47:00.370Z,165.1
2023-02-09T06:48:00.369Z,177.3
2023-02-09T06:49:00.363Z,190.5
2023-02-09T06:50:00.900Z,204.7
2023-02-09T06:51:00.390Z,217.3
2023-02-09T06:52:00.368Z,233.5
2023-02-09T06:53:00.376Z,250.9
2023-02-09T06:54:00.382Z,263.2
2023-02-09T06:55:01.236Z,279.4
2023-02-09T06:56:00.450Z,296.6
2023-02-09T06:57:00.402Z,311.1
2023-02-09T06:58:00.385Z,330.3
2023-02-09T06:59:00.416Z,346.5
2023-02-09T07:00:00.386Z,363.5
2023-02-09T07:01:00.404Z,381.3
2023-02-09T07:02:00.488Z,399.9
2023-02-09T07:03:00.440Z,414.5
2023-02-09T07:04:00.409Z,434.9
2023-02-09T07:05:00.411Z,450.8
2023-02-09T07:06:00.409Z,467.2
2023-02-09T07:07:00.394Z,490.1
2023-02-09T07:08:00.445Z,502
2023-02-09T07:09:00.401Z,526.6
2023-02-09T07:10:00.505Z,539.3
2023-02-09T07:11:00.442Z,559
2023-02-09T07:12:00.419Z,579.4
2023-02-09T07:13:00.548Z,593.4
2023-02-09T07:14:00.400Z,607.8
2023-02-09T07:15:00.525Z,622.5
2023-02-09T07:16:00.480Z,645.3
2023-02-09T07:17:00.395Z,660.9
2023-02-09T07:18:00.534Z,685.1
2023-02-09T07:19:00.550Z,710.1
2023-02-09T07:20:00.704Z,718.6
2023-02-09T07:21:00.570Z,736
2023-02-09T07:22:00.418Z,762.9
2023-02-09T07:23:00.509Z,772.1
2023-02-09T07:24:00.596Z,790.8
2023-02-09T07:25:00.579Z,809.9
2023-02-09T07:26:00.550Z,829.5
2023-02-09T07:27:00.735Z,849.6
2023-02-09T07:28:00.509Z,859.8
2023-02-09T07:29:00.512Z,880.6
2023-02-09T07:30:01.232Z,891.2
2023-02-09T07:31:00.644Z,912.8
2023-02-09T07:32:00.714Z,923.7
2023-02-09T07:33:00.590Z,934.9
2023-02-09T07:34:00.852Z,957.5
2023-02-09T07:35:00.669Z,969
2023-02-09T07:36:00.616Z,992.5
2023-02-09T07:37:00.803Z,1028.7
2023-02-09T07:38:00.726Z,1041.1
2023-02-09T07:39:00.763Z,1053.6
2023-02-09T07:40:00.714Z,1066.3
2023-02-09T07:41:00.672Z,1092.1
2023-02-09T07:42:00.746Z,1105.3
2023-02-09T07:43:00.508Z,1118.6
2023-02-09T07:44:00.735Z,1118.6
2023-02-09T07:45:00.437Z,1132
2023-02-09T07:46:00.641Z,1145.6
2023-02-09T07:47:00.423Z,1159.4
2023-02-09T07:48:00.425Z,1173.3
2023-02-09T07:49:01.504Z,1187.5
2023-02-09T07:50:00.430Z,1216.2
2023-02-09T07:51:00.454Z,1245.7
2023-02-09T07:52:00.495Z,1260.7
2023-02-09T07:53:00.426Z,1275.8
2023-02-09T07:54:00.423Z,1275.8
2023-02-09T07:55:00.550Z,1306.7
2023-02-09T07:56:00.459Z,1338.3
2023-02-09T07:58:00.564Z,1370.7
2023-02-09T07:59:00.565Z,1403.9
2023-02-09T08:00:00.576Z,1403.9
2023-02-09T08:01:00.576Z,1420.8
2023-02-09T08:02:01.051Z,1437.9
2023-02-09T08:03:00.866Z,1472.7
2023-02-09T08:04:01.115Z,1490.4
2023-02-09T08:05:00.893Z,1508.3
2023-02-09T08:06:01.130Z,1508.3
2023-02-09T08:07:00.910Z,1508.3
2023-02-09T08:08:01.085Z,1544.8
2023-02-09T08:09:00.561Z,1544.8
2023-02-09T08:11:04.306Z,1659.7
2023-02-09T08:12:00.740Z,1962.2
2023-02-09T08:13:01.160Z,2614.6
2023-02-09T08:14:00.724Z,2742.6
2023-02-09T08:15:00.464Z,1826.4
2023-02-09T08:16:00.544Z,1741
2023-02-09T08:17:00.882Z,1679.7
2023-02-09T08:18:01.129Z,1699.9
2023-02-09T08:19:00.540Z,1720.4
2023-02-09T08:20:00.471Z,1720.4
2023-02-09T08:21:00.463Z,1741
2023-02-09T08:22:00.484Z,1762
2023-02-09T08:23:00.501Z,1783.3
2023-02-09T08:24:00.511Z,1783.3
2023-02-09T08:25:00.498Z,1804.7
2023-02-09T08:26:00.503Z,1826.4
2023-02-09T08:27:00.521Z,1826.4
2023-02-09T08:28:00.591Z,1848.4
2023-02-09T08:29:00.578Z,1962.2
2023-02-09T08:30:00.477Z,1962.2
2023-02-09T08:31:00.508Z,1893.1
2023-02-09T08:32:00.689Z,2058.4
2023-02-09T08:33:00.496Z,2108.2
2023-02-09T08:34:00.480Z,1938.9
2023-02-09T08:35:00.512Z,1938.9
2023-02-09T08:36:00.505Z,1938.9
2023-02-09T08:37:00.508Z,1962.2
2023-02-09T08:38:00.538Z,1985.8
2023-02-09T08:39:00.544Z,1985.8
2023-02-09T08:40:00.515Z,2009.8
2023-02-09T08:41:00.525Z,2034
2023-02-09T08:42:00.520Z,2058.4
2023-02-09T08:43:00.512Z,2058.4
2023-02-09T08:44:00.927Z,2058.4
2023-02-09T08:45:00.514Z,2108.2
2023-02-09T08:46:00.711Z,2133.6
2023-02-09T08:47:00.715Z,2159.2
2023-02-09T08:48:00.503Z,2159.2
2023-02-09T08:49:00.514Z,2159.2
2023-02-09T08:50:01.129Z,2185.2
2023-02-09T08:51:00.796Z,2211.5
2023-02-09T08:52:00.559Z,2211.5
2023-02-09T08:53:00.522Z,2211.5
2023-02-09T08:54:00.539Z,2211.5
2023-02-09T08:55:00.540Z,2211.5
2023-02-09T08:56:00.562Z,2211.5
2023-02-09T08:57:00.516Z,2265.1
2023-02-09T08:58:00.509Z,2265.1
2023-02-09T08:59:00.526Z,2265.1
2023-02-09T09:00:00.584Z,2265.1
2023-02-09T09:01:00.738Z,2265.1
2023-02-09T09:02:00.530Z,2265.1
2023-02-09T09:03:00.557Z,2265.1
2023-02-09T09:04:00.604Z,2319.9
2023-02-09T09:05:00.534Z,2319.9
2023-02-09T09:06:00.566Z,2292.3
2023-02-09T09:07:00.536Z,2376
2023-02-09T09:08:00.534Z,2319.9
2023-02-09T09:09:00.925Z,2347.8
2023-02-09T09:10:00.576Z,2376
2023-02-09T09:11:00.545Z,2376
2023-02-09T09:12:00.542Z,2347.8
2023-02-09T09:13:00.532Z,2347.8
2023-02-09T09:14:00.550Z,2404.6
2023-02-09T09:15:00.547Z,2404.6
2023-02-09T09:16:00.584Z,2376
2023-02-09T09:17:00.668Z,2376
2023-02-09T09:18:00.527Z,2376
2023-02-09T09:19:00.550Z,2347.8
2023-02-09T09:20:00.579Z,2347.8
2023-02-09T09:21:00.552Z,2433.5
2023-02-09T09:22:00.552Z,2347.8
2023-02-09T09:23:00.546Z,2433.5
2023-02-09T09:24:00.570Z,2376
2023-02-09T09:25:00.554Z,2404.6
2023-02-09T09:26:00.561Z,2462.8
2023-02-09T09:27:00.542Z,2404.6
2023-02-09T09:28:00.587Z,2376
2023-02-09T09:29:00.551Z,2376
2023-02-09T09:30:00.567Z,2376
2023-02-09T09:31:00.613Z,2404.6
2023-02-09T09:32:00.588Z,2347.8
2023-02-09T09:33:00.683Z,2376
2023-02-09T09:34:00.559Z,2404.6
2023-02-09T09:35:00.573Z,2376
2023-02-09T09:36:00.580Z,2376
2023-02-09T09:37:00.545Z,2433.5
2023-02-09T09:38:00.565Z,2433.5
2023-02-09T09:39:00.578Z,2433.5
2023-02-09T09:40:00.582Z,2376
2023-02-09T09:41:00.600Z,2347.8
2023-02-09T09:42:00.591Z,2404.6
2023-02-09T09:43:00.578Z,2433.5
2023-02-09T09:44:00.615Z,2404.6
2023-02-09T09:45:00.575Z,2376
2023-02-09T09:46:00.667Z,2404.6
2023-02-09T09:47:00.570Z,2376
2023-02-09T09:48:00.566Z,2376
2023-02-09T09:49:00.617Z,2347.8
2023-02-09T09:50:01.046Z,2376
2023-02-09T09:51:00.601Z,2404.6
2023-02-09T09:52:00.580Z,2404.6
2023-02-09T09:53:00.569Z,2404.6
2023-02-09T09:54:00.570Z,2433.5
2023-02-09T09:55:00.612Z,2433.5
2023-02-09T09:56:00.593Z,2433.5
2023-02-09T09:57:00.566Z,2433.5
2023-02-09T09:58:00.615Z,2433.5
2023-02-09T09:59:00.625Z,2404.6
2023-02-09T10:00:00.613Z,2433.5
2023-02-09T10:01:00.641Z,2404.6
2023-02-09T10:02:00.582Z,2404.6
2023-02-09T10:03:00.569Z,2404.6
2023-02-09T10:04:00.577Z,2404.6
2023-02-09T10:05:00.592Z,2433.5
2023-02-09T10:06:00.577Z,2462.8
2023-02-09T10:07:00.603Z,2433.5
2023-02-09T10:08:00.594Z,2433.5
2023-02-09T10:09:00.619Z,2404.6
2023-02-09T10:10:00.607Z,2404.6
2023-02-09T10:11:00.615Z,2376
2023-02-09T10:12:00.583Z,2404.6
2023-02-09T10:13:00.591Z,2433.5
2023-02-09T10:14:00.629Z,2462.8
2023-02-09T10:15:00.608Z,2433.5
2023-02-09T10:16:00.594Z,2433.5
2023-02-09T10:17:00.631Z,2433.5
2023-02-09T10:18:00.582Z,2462.8
2023-02-09T10:19:00.588Z,2462.8
2023-02-09T10:20:00.628Z,2462.8
2023-02-09T10:21:00.591Z,2462.8
2023-02-09T10:22:00.598Z,2492.4
2023-02-09T10:23:00.639Z,2492.4
2023-02-09T10:24:00.596Z,2462.8
2023-02-09T10:25:00.614Z,2462.8
2023-02-09T10:26:00.618Z,2433.5
2023-02-09T10:27:00.599Z,2462.8
2023-02-09T10:28:00.653Z,2492.4
2023-02-09T10:29:00.608Z,2492.4
2023-02-09T10:30:00.617Z,2492.4
2023-02-09T10:31:00.702Z,2433.5
2023-02-09T10:32:00.693Z,2492.4
2023-02-09T10:33:00.648Z,2492.4
2023-02-09T10:34:00.610Z,2522.4
2023-02-09T10:35:00.595Z,2552.8
2023-02-09T10:36:00.621Z,2552.8
2023-02-09T10:37:00.531Z,2614.6
2023-02-09T10:38:00.499Z,2583.5
2023-02-09T10:39:00.506Z,2583.5
2023-02-09T10:40:00.451Z,2583.5
2023-02-09T10:41:00.405Z,2614.6
2023-02-09T10:42:00.397Z,2614.6
2023-02-09T10:43:00.394Z,2614.6
2023-02-09T10:44:00.318Z,2614.6
2023-02-09T10:45:00.275Z,2614.6
2023-02-09T10:46:00.334Z,2614.6
2023-02-09T10:47:00.243Z,2614.6
2023-02-09T10:48:00.241Z,2614.6
2023-02-09T10:49:00.202Z,2646
2023-02-09T10:50:00.197Z,2646
2023-02-09T10:51:00.236Z,2677.9
2023-02-09T10:52:00.210Z,2677.9
2023-02-09T10:53:00.186Z,2677.9
2023-02-09T10:54:00.196Z,2677.9
2023-02-09T10:55:00.223Z,2710.1
2023-02-09T10:56:00.210Z,2710.1
2023-02-09T10:57:02.095Z,2710.1
2023-02-09T10:58:00.202Z,2710.1
2023-02-09T10:59:00.188Z,2742.6
2023-02-09T11:00:00.199Z,2742.6
2023-02-09T11:01:00.220Z,2742.6
2023-02-09T11:02:00.220Z,2710.1
2023-02-09T11:03:00.212Z,2742.6
2023-02-09T11:04:00.268Z,2742.6
2023-02-09T11:05:00.207Z,2742.6
2023-02-09T11:06:00.226Z,2775.6
2023-02-09T11:07:00.231Z,2775.6
2023-02-09T11:08:00.210Z,2775.6
2023-02-09T11:09:00.216Z,2809
2023-02-09T11:10:00.216Z,2809
2023-02-09T11:11:00.238Z,2842.8
2023-02-09T11:12:00.245Z,2809
2023-02-09T11:13:00.219Z,2842.8
2023-02-09T11:14:00.256Z,2877.1
2023-02-09T11:15:00.238Z,2842.8
2023-02-09T11:16:00.303Z,2877.1
2023-02-09T11:17:00.271Z,2911.7
2023-02-09T11:18:00.223Z,2911.7
2023-02-09T11:19:00.215Z,2877.1
2023-02-09T11:20:00.236Z,2911.7
2023-02-09T11:21:00.217Z,2911.7
2023-02-09T11:22:00.234Z,2946.7
2023-02-09T11:23:00.249Z,2946.7
2023-02-09T11:24:00.223Z,2946.7
2023-02-09T11:25:00.266Z,2946.7
2023-02-09T11:26:00.274Z,2946.7
2023-02-09T11:27:00.251Z,2946.7
2023-02-09T11:28:00.301Z,2982.2
2023-02-09T11:29:00.230Z,2982.2
2023-02-09T11:30:00.262Z,2982.2
2023-02-09T11:31:00.342Z,2982.2
2023-02-09T11:32:00.306Z,2982.2
2023-02-09T11:33:00.241Z,2982.2
2023-02-09T11:34:00.241Z,3018
2023-02-09T11:35:00.269Z,3018
2023-02-09T11:36:00.244Z,3018
2023-02-09T11:37:00.311Z,3018
2023-02-09T11:38:00.325Z,3018
2023-02-09T11:39:00.255Z,3018
2023-02-09T11:40:00.294Z,3018
2023-02-09T11:41:00.236Z,3018
2023-02-09T11:42:00.263Z,3018
2023-02-09T11:43:00.270Z,3054.3
2023-02-09T11:44:00.297Z,3018
2023-02-09T11:45:00.282Z,3054.3
2023-02-09T11:46:00.278Z,3054.3
2023-02-09T11:47:00.314Z,3054.3
2023-02-09T11:48:00.281Z,3018
2023-02-09T11:49:00.247Z,3018
2023-02-09T11:50:00.274Z,3018
2023-02-09T11:51:00.247Z,3018
2023-02-09T11:52:00.280Z,3018
2023-02-09T11:53:00.280Z,3018
2023-02-09T11:54:00.275Z,3018
2023-02-09T11:55:00.287Z,3018
2023-02-09T11:56:00.261Z,3054.3
2023-02-09T11:57:00.291Z,3091.1
2023-02-09T11:58:00.284Z,3091.1
2023-02-09T11:59:00.277Z,3054.3
2023-02-09T12:00:00.304Z,3054.3
2023-02-09T12:01:13.552Z,3054.3
2023-02-09T12:02:00.275Z,3091.1
2023-02-09T12:03:00.357Z,3091.1
2023-02-09T12:04:00.297Z,3018
2023-02-09T12:05:00.388Z,3018
2023-02-09T12:06:00.281Z,3018
2023-02-09T12:07:00.279Z,3018
2023-02-09T12:08:00.293Z,3018
2023-02-09T12:09:00.301Z,3018
2023-02-09T12:10:00.304Z,3054.3
2023-02-09T12:11:00.307Z,3091.1
2023-02-09T12:12:00.297Z,3018
2023-02-09T12:13:00.305Z,3054.3
2023-02-09T12:14:00.292Z,3054.3
2023-02-09T12:15:00.305Z,3091.1
2023-02-09T12:16:00.333Z,3091.1
2023-02-09T12:17:00.326Z,3091.1
2023-02-09T12:18:00.484Z,3091.1
2023-02-09T12:19:00.304Z,3091.1
2023-02-09T12:20:00.329Z,3091.1
2023-02-09T12:21:00.352Z,3091.1
2023-02-09T12:22:00.294Z,3128.2
2023-02-09T12:23:00.308Z,3128.2
2023-02-09T12:24:00.300Z,3128.2
2023-02-09T12:25:00.335Z,3128.2
2023-02-09T12:26:00.321Z,3128.2
2023-02-09T12:27:00.376Z,3128.2
2023-02-09T12:28:00.324Z,3128.2
2023-02-09T12:29:00.326Z,3091.1
2023-02-09T12:30:00.322Z,3091.1
2023-02-09T12:31:00.435Z,3091.1
2023-02-09T12:32:00.396Z,3091.1
2023-02-09T12:33:00.382Z,3128.2
2023-02-09T12:34:00.340Z,3128.2
2023-02-09T12:35:00.323Z,3128.2
2023-02-09T12:36:00.322Z,3091.1
2023-02-09T12:37:00.305Z,3091.1
2023-02-09T12:38:00.301Z,3128.2
2023-02-09T12:39:05.979Z,3128.2
2023-02-09T12:40:00.330Z,3128.2
2023-02-09T12:41:00.323Z,3128.2
2023-02-09T12:42:00.330Z,3128.2
2023-02-09T12:43:00.313Z,3091.1
2023-02-09T12:44:00.310Z,3128.2
2023-02-09T12:45:00.311Z,3128.2
2023-02-09T12:46:00.420Z,3091.1
2023-02-09T12:47:00.315Z,3091.1
2023-02-09T12:48:00.340Z,3091.1
2023-02-09T12:49:00.320Z,3091.1
2023-02-09T12:50:00.318Z,3091.1
2023-02-09T12:51:00.331Z,3091.1
2023-02-09T12:52:00.327Z,3054.3
2023-02-09T12:53:00.320Z,3054.3
2023-02-09T12:54:00.382Z,3091.1
2023-02-09T12:55:00.326Z,3091.1
2023-02-09T12:56:00.332Z,3091.1
2023-02-09T12:57:00.336Z,3091.1
2023-02-09T12:58:00.340Z,3091.1
2023-02-09T12:59:00.341Z,3091.1
2023-02-09T13:00:00.351Z,3091.1
2023-02-09T13:01:00.426Z,3091.1
2023-02-09T13:02:00.342Z,3018
2023-02-09T13:03:00.350Z,3018
2023-02-09T13:04:00.409Z,3018
2023-02-09T13:05:00.360Z,3018
2023-02-09T13:06:00.364Z,3018
2023-02-09T13:07:00.377Z,3018
2023-02-09T13:08:00.388Z,3018
2023-02-09T13:09:00.389Z,3018
2023-02-09T13:10:00.419Z,3018
2023-02-09T13:11:00.392Z,3018
2023-02-09T13:12:00.369Z,3018
2023-02-09T13:13:00.384Z,2982.2